createdAt,value
2017-07-28T00:00:09.341Z,8
2017-07-28T00:01:10.036Z,8
2017-07-28T00:02:10.706Z,8
2017-07-28T00:03:11.447Z,8
2017-07-28T00:04:12.294Z,8
2017-07-28T00:05:13.245Z,8
2017-07-28T00:06:13.972Z,8
2017-07-28T00:07:14.650Z,8
2017-07-28T00:08:15.345Z,8
2017-07-28T00:09:16.143Z,0
2017-07-28T00:10:16.894Z,0
2017-07-28T00:11:17.884Z,0
2017-07-28T00:12:18.569Z,0
2017-07-28T00:13:19.256Z,0
2017-07-28T00:14:19.990Z,0
2017-07-28T00:15:20.673Z,0
2017-07-28T00:16:21.368Z,0
2017-07-28T00:17:22.317Z,0
2017-07-28T00:18:23.050Z,0
2017-07-28T00:19:23.952Z,0
2017-07-28T00:20:24.701Z,0
2017-07-28T00:21:25.401Z,0
2017-07-28T00:22:26.081Z,0
2017-07-28T00:23:27.025Z,0
2017-07-28T00:24:27.773Z,0
2017-07-28T00:25:28.520Z,0
2017-07-28T00:26:29.218Z,0
2017-07-28T00:27:29.919Z,0
2017-07-28T00:28:30.604Z,0
2017-07-28T00:29:31.350Z,0
2017-07-28T00:30:32.299Z,0
2017-07-28T00:31:33.044Z,0
2017-07-28T00:32:33.787Z,0
2017-07-28T00:33:34.489Z,0
2017-07-28T00:34:35.180Z,0
2017-07-28T00:35:35.861Z,0
2017-07-28T00:36:36.838Z,0
2017-07-28T00:37:37.519Z,0
2017-07-28T00:38:38.223Z,0
2017-07-28T00:39:39.170Z,0
2017-07-28T00:40:39.905Z,0
2017-07-28T00:41:40.602Z,0
2017-07-28T00:42:41.584Z,0
2017-07-28T00:43:42.269Z,0
2017-07-28T00:44:42.997Z,0
2017-07-28T00:45:43.700Z,0
2017-07-28T00:46:44.382Z,0
2017-07-28T00:47:45.128Z,0
2017-07-28T00:48:46.182Z,0
2017-07-28T00:49:46.882Z,0
2017-07-28T00:50:47.615Z,0
2017-07-28T00:51:48.343Z,0
2017-07-28T00:52:49.041Z,0
2017-07-28T00:53:49.746Z,0
2017-07-28T00:54:50.676Z,0
2017-07-28T00:55:51.356Z,0
2017-07-28T00:56:52.082Z,0
2017-07-28T00:57:52.775Z,0
2017-07-28T00:58:53.480Z,0
2017-07-28T00:59:54.230Z,0
2017-07-28T01:00:54.924Z,0
2017-07-28T01:01:55.906Z,0
2017-07-28T01:02:56.592Z,0
2017-07-28T01:03:57.288Z,0
2017-07-28T01:04:57.963Z,0
2017-07-28T01:05:58.650Z,0
2017-07-28T01:06:59.383Z,0
2017-07-28T01:08:00.414Z,0
2017-07-28T01:09:01.148Z,0
2017-07-28T01:10:01.848Z,0
2017-07-28T01:11:02.534Z,0
2017-07-28T01:12:03.287Z,0
2017-07-28T01:13:04.410Z,0
2017-07-28T01:14:05.396Z,0
2017-07-28T01:15:06.131Z,0
2017-07-28T01:16:06.881Z,0
2017-07-28T01:17:07.563Z,0
2017-07-28T01:18:08.352Z,0
2017-07-28T01:19:09.027Z,0
2017-07-28T01:20:10.025Z,0
2017-07-28T01:21:10.777Z,0
2017-07-28T01:22:11.525Z,0
2017-07-28T01:23:12.265Z,0
2017-07-28T01:24:12.952Z,0
2017-07-28T01:25:13.640Z,0
2017-07-28T01:26:14.581Z,0
2017-07-28T01:27:15.267Z,0
2017-07-28T01:28:16.012Z,0
2017-07-28T01:29:16.906Z,0
2017-07-28T01:30:17.588Z,0
2017-07-28T01:31:18.282Z,0
2017-07-28T01:32:19.239Z,0
2017-07-28T01:33:19.898Z,0
2017-07-28T01:34:20.680Z,0
2017-07-28T01:35:21.386Z,0
2017-07-28T01:36:22.109Z,0
2017-07-28T01:37:22.814Z,0
2017-07-28T01:38:23.828Z,0
2017-07-28T01:39:24.522Z,0
2017-07-28T01:40:25.216Z,0
2017-07-28T01:41:25.897Z,0
2017-07-28T01:42:26.571Z,0
2017-07-28T01:43:27.514Z,0
2017-07-28T01:44:28.487Z,0
2017-07-28T01:45:29.250Z,0
2017-07-28T01:46:29.913Z,0
2017-07-28T01:47:30.606Z,0
2017-07-28T01:48:31.304Z,0
2017-07-28T01:49:32.051Z,0
2017-07-28T01:50:33.097Z,0
2017-07-28T01:51:33.823Z,0
2017-07-28T01:52:34.549Z,0
2017-07-28T01:53:35.248Z,0
2017-07-28T01:54:35.936Z,0
2017-07-28T01:55:36.626Z,0
2017-07-28T01:56:37.650Z,0
2017-07-28T01:57:38.352Z,0
2017-07-28T01:58:39.214Z,0
2017-07-28T01:59:39.968Z,0
2017-07-28T02:00:40.676Z,0
2017-07-28T02:01:41.422Z,0
2017-07-28T02:02:42.373Z,0
2017-07-28T02:03:43.332Z,0
2017-07-28T02:04:44.051Z,0
2017-07-28T02:05:44.741Z,0
2017-07-28T02:06:45.483Z,0
2017-07-28T02:07:46.164Z,0
2017-07-28T02:08:47.161Z,0
2017-07-28T02:09:47.855Z,0
2017-07-28T02:10:48.547Z,0
2017-07-28T02:11:49.300Z,0
2017-07-28T02:12:50.007Z,0
2017-07-28T02:13:50.647Z,0
2017-07-28T02:14:51.554Z,0
2017-07-28T02:15:52.547Z,0
2017-07-28T02:16:53.218Z,0
2017-07-28T02:17:53.910Z,0
2017-07-28T02:18:54.610Z,0
2017-07-28T02:19:55.494Z,0
2017-07-28T02:20:56.167Z,0
2017-07-28T02:21:57.251Z,0
2017-07-28T02:22:57.958Z,0
2017-07-28T02:23:58.702Z,0
2017-07-28T02:24:59.493Z,0
2017-07-28T02:26:00.227Z,0
2017-07-28T02:27:01.237Z,0
2017-07-28T02:28:02.206Z,0
2017-07-28T02:29:02.882Z,0
2017-07-28T02:30:03.598Z,0
2017-07-28T02:31:04.327Z,0
2017-07-28T02:32:05.018Z,0
2017-07-28T02:33:05.692Z,0
2017-07-28T02:34:06.694Z,0
2017-07-28T02:35:07.756Z,0
2017-07-28T02:36:08.520Z,0
2017-07-28T02:37:09.177Z,0
2017-07-28T02:38:09.854Z,0
2017-07-28T02:39:10.544Z,0
2017-07-28T02:40:11.891Z,0
2017-07-28T02:41:12.649Z,0
2017-07-28T02:42:13.302Z,0
2017-07-28T02:43:14.365Z,0
2017-07-28T02:44:15.034Z,0
2017-07-28T02:45:15.718Z,0
2017-07-28T02:46:16.785Z,0
2017-07-28T02:47:17.510Z,0
2017-07-28T02:48:18.190Z,0
2017-07-28T02:49:18.900Z,0
2017-07-28T02:50:19.579Z,0
2017-07-28T02:51:20.262Z,0
2017-07-28T02:52:21.196Z,0
2017-07-28T02:53:21.921Z,0
2017-07-28T02:54:22.595Z,0
2017-07-28T02:55:23.486Z,0
2017-07-28T02:56:24.168Z,0
2017-07-28T02:57:24.863Z,0
2017-07-28T02:58:25.834Z,0
2017-07-28T02:59:26.586Z,0
2017-07-28T03:00:27.343Z,0
2017-07-28T03:01:28.030Z,0
2017-07-28T03:02:28.781Z,0
2017-07-28T03:03:29.474Z,0
2017-07-28T03:04:30.493Z,0
2017-07-28T03:05:31.156Z,0
2017-07-28T03:06:31.853Z,0
2017-07-28T03:07:32.565Z,0
2017-07-28T03:08:33.406Z,0
2017-07-28T03:09:34.424Z,0
2017-07-28T03:10:35.427Z,0
2017-07-28T03:11:36.098Z,0
2017-07-28T03:12:36.794Z,0
2017-07-28T03:13:37.659Z,0
2017-07-28T03:14:38.321Z,0
2017-07-28T03:15:39.050Z,0
2017-07-28T03:16:40.055Z,0
2017-07-28T03:17:40.829Z,0
2017-07-28T03:18:41.540Z,0
2017-07-28T03:19:42.245Z,0
2017-07-28T03:20:42.933Z,0
2017-07-28T03:21:43.613Z,4
2017-07-28T03:22:44.548Z,4
2017-07-28T03:23:45.392Z,4
2017-07-28T03:24:46.104Z,4
2017-07-28T03:25:46.841Z,4
2017-07-28T03:26:47.586Z,8
2017-07-28T03:27:48.277Z,4
2017-07-28T03:28:49.091Z,8
2017-07-28T03:29:50.001Z,8
2017-07-28T03:30:50.739Z,8
2017-07-28T03:31:51.469Z,8
2017-07-28T03:32:52.138Z,12
2017-07-28T03:33:52.834Z,16
2017-07-28T03:34:53.529Z,16
2017-07-28T03:35:54.515Z,20
2017-07-28T03:36:55.228Z,24
2017-07-28T03:37:55.943Z,24
2017-07-28T03:38:56.632Z,28
2017-07-28T03:39:57.378Z,32
2017-07-28T03:40:58.060Z,36
2017-07-28T03:41:59.006Z,44
2017-07-28T03:42:59.697Z,48
2017-07-28T03:44:00.561Z,52
2017-07-28T03:45:01.242Z,60
2017-07-28T03:46:01.930Z,68
2017-07-28T03:47:02.621Z,72
2017-07-28T03:48:03.717Z,80
2017-07-28T03:49:04.625Z,88
2017-07-28T03:50:05.319Z,96
2017-07-28T03:51:05.998Z,104
2017-07-28T03:52:06.672Z,116
2017-07-28T03:53:07.365Z,128
2017-07-28T03:54:08.359Z,140
2017-07-28T03:55:09.375Z,152
2017-07-28T03:56:10.052Z,164
2017-07-28T03:57:10.768Z,176
2017-07-28T03:58:11.479Z,192
2017-07-28T03:59:12.239Z,204
2017-07-28T04:00:13.188Z,220
2017-07-28T04:01:14.196Z,232
2017-07-28T04:02:14.890Z,248
2017-07-28T04:03:15.596Z,264
2017-07-28T04:04:16.304Z,284
2017-07-28T04:05:16.999Z,296
2017-07-28T04:06:17.949Z,312
2017-07-28T04:07:18.621Z,332
2017-07-28T04:08:19.324Z,352
2017-07-28T04:09:20.319Z,368
2017-07-28T04:10:21.002Z,384
2017-07-28T04:11:21.703Z,404
2017-07-28T04:12:22.632Z,420
2017-07-28T04:13:23.339Z,440
2017-07-28T04:14:24.013Z,460
2017-07-28T04:15:25.014Z,476
2017-07-28T04:16:25.728Z,496
2017-07-28T04:17:26.403Z,512
2017-07-28T04:18:27.454Z,532
2017-07-28T04:19:28.246Z,552
2017-07-28T04:20:28.957Z,568
2017-07-28T04:21:29.641Z,588
2017-07-28T04:22:30.335Z,604
2017-07-28T04:23:31.105Z,624
2017-07-28T04:24:32.111Z,640
2017-07-28T04:25:32.811Z,660
2017-07-28T04:26:33.804Z,680
2017-07-28T04:27:34.507Z,696
2017-07-28T04:28:35.199Z,712
2017-07-28T04:29:35.879Z,728
2017-07-28T04:30:36.882Z,744
2017-07-28T04:31:37.564Z,764
2017-07-28T04:32:38.322Z,780
2017-07-28T04:33:39.056Z,800
2017-07-28T04:34:39.734Z,808
2017-07-28T04:35:40.409Z,824
2017-07-28T04:36:41.406Z,840
2017-07-28T04:37:42.092Z,856
2017-07-28T04:38:42.851Z,872
2017-07-28T04:39:43.543Z,884
2017-07-28T04:40:44.249Z,896
2017-07-28T04:41:44.965Z,912
2017-07-28T04:42:45.704Z,928
2017-07-28T04:43:46.772Z,944
2017-07-28T04:44:47.466Z,956
2017-07-28T04:45:48.249Z,972
2017-07-28T04:46:48.999Z,984
2017-07-28T04:47:49.662Z,1000
2017-07-28T04:48:50.356Z,1012
2017-07-28T04:49:51.494Z,1024
2017-07-28T04:50:52.192Z,1036
2017-07-28T04:51:52.885Z,1048
2017-07-28T04:52:53.561Z,1064
2017-07-28T04:53:54.260Z,1076
2017-07-28T04:54:55.001Z,1088
2017-07-28T04:55:55.959Z,1100
2017-07-28T04:56:56.661Z,1116
2017-07-28T04:57:57.390Z,1132
2017-07-28T04:58:58.055Z,1140
2017-07-28T04:59:58.810Z,1152
2017-07-28T05:00:59.511Z,1172
2017-07-28T05:02:00.490Z,1196
2017-07-28T05:03:01.180Z,1228
2017-07-28T05:04:01.885Z,1240
2017-07-28T05:05:02.900Z,1236
2017-07-28T05:06:03.597Z,1220
2017-07-28T05:07:04.393Z,1220
2017-07-28T05:08:05.397Z,1228
2017-07-28T05:09:06.100Z,1232
2017-07-28T05:10:06.786Z,1244
2017-07-28T05:11:07.566Z,1248
2017-07-28T05:12:08.220Z,1260
2017-07-28T05:13:09.023Z,1272
2017-07-28T05:14:09.738Z,1280
2017-07-28T05:15:10.671Z,1284
2017-07-28T05:16:11.427Z,1288
2017-07-28T05:17:12.183Z,1304
2017-07-28T05:18:12.985Z,1316
2017-07-28T05:19:13.670Z,1324
2017-07-28T05:20:14.378Z,1332
2017-07-28T05:21:15.307Z,1352
2017-07-28T05:22:16.021Z,1364
2017-07-28T05:23:16.901Z,1372
2017-07-28T05:24:17.560Z,1388
2017-07-28T05:25:18.263Z,1408
2017-07-28T05:26:18.959Z,1416
2017-07-28T05:27:19.960Z,1408
2017-07-28T05:28:20.688Z,1420
2017-07-28T05:29:21.424Z,1420
2017-07-28T05:30:22.193Z,1412
2017-07-28T05:31:22.884Z,1416
2017-07-28T05:32:23.577Z,1416
2017-07-28T05:33:24.517Z,1420
2017-07-28T05:34:25.215Z,1436
2017-07-28T05:35:25.956Z,1440
2017-07-28T05:36:26.643Z,1452
2017-07-28T05:37:27.330Z,1460
2017-07-28T05:38:28.067Z,1480
2017-07-28T05:39:29.029Z,1488
2017-07-28T05:40:29.767Z,1508
2017-07-28T05:41:30.517Z,1488
2017-07-28T05:42:31.272Z,1508
2017-07-28T05:43:31.971Z,1496
2017-07-28T05:44:32.723Z,1484
2017-07-28T05:45:33.661Z,1492
2017-07-28T05:46:34.348Z,1496
2017-07-28T05:47:35.289Z,1472
2017-07-28T05:48:35.999Z,1500
2017-07-28T05:49:36.701Z,1500
2017-07-28T05:50:37.380Z,1500
2017-07-28T05:51:38.345Z,1504
2017-07-28T05:52:39.023Z,1508
2017-07-28T05:53:39.755Z,1512
2017-07-28T05:54:40.460Z,1516
2017-07-28T05:55:41.150Z,1520
2017-07-28T05:56:41.907Z,1528
2017-07-28T05:57:43.090Z,1532
2017-07-28T05:58:43.790Z,1536
2017-07-28T05:59:44.489Z,1540
2017-07-28T06:00:45.365Z,1540
2017-07-28T06:01:46.044Z,1544
2017-07-28T06:02:46.742Z,1544
2017-07-28T06:03:47.745Z,1544
2017-07-28T06:04:48.428Z,1552
2017-07-28T06:05:49.189Z,1552
2017-07-28T06:06:49.876Z,1556
2017-07-28T06:07:50.554Z,1564
2017-07-28T06:08:51.284Z,1572
2017-07-28T06:09:52.208Z,1580
2017-07-28T06:10:52.908Z,1576
2017-07-28T06:11:53.655Z,1580
2017-07-28T06:12:54.451Z,1580
2017-07-28T06:13:55.247Z,1596
2017-07-28T06:14:55.930Z,1592
2017-07-28T06:15:56.877Z,1596
2017-07-28T06:16:57.579Z,1608
2017-07-28T06:17:58.296Z,1616
2017-07-28T06:18:59.138Z,1612
2017-07-28T06:19:59.889Z,1616
2017-07-28T06:21:00.597Z,1624
2017-07-28T06:22:01.522Z,1632
2017-07-28T06:23:02.228Z,1648
2017-07-28T06:24:03.105Z,1644
2017-07-28T06:25:03.818Z,1664
2017-07-28T06:26:04.503Z,1664
2017-07-28T06:27:05.261Z,1680
2017-07-28T06:28:05.944Z,1684
2017-07-28T06:29:07.354Z,1668
2017-07-28T06:30:08.113Z,1684
2017-07-28T06:31:08.838Z,1688
2017-07-28T06:32:09.504Z,1704
2017-07-28T06:33:10.300Z,1600
2017-07-28T06:34:11.005Z,1604
2017-07-28T06:35:11.961Z,1784
2017-07-28T06:36:12.665Z,2008
2017-07-28T06:37:13.370Z,1816
2017-07-28T06:38:14.057Z,1784
2017-07-28T06:39:14.738Z,1780
2017-07-28T06:40:15.469Z,1772
2017-07-28T06:41:16.873Z,1756
2017-07-28T06:42:17.743Z,1796
2017-07-28T06:43:18.665Z,1828
2017-07-28T06:44:20.198Z,1844
2017-07-28T06:45:20.980Z,1852
2017-07-28T06:46:21.647Z,1824
2017-07-28T06:47:22.715Z,1812
2017-07-28T06:48:23.459Z,1852
2017-07-28T06:49:24.143Z,1944
2017-07-28T06:50:24.886Z,1840
2017-07-28T06:51:25.612Z,1884
2017-07-28T06:52:26.314Z,1900
2017-07-28T06:53:27.279Z,1908
2017-07-28T06:54:27.990Z,1972
2017-07-28T06:55:28.701Z,2016
2017-07-28T06:56:29.377Z,2044
2017-07-28T06:57:30.086Z,2288
2017-07-28T06:58:30.779Z,2988
2017-07-28T06:59:31.739Z,3088
2017-07-28T07:00:32.420Z,3096
2017-07-28T07:01:33.128Z,3800
2017-07-28T07:02:33.861Z,3780
2017-07-28T07:03:34.566Z,2892
2017-07-28T07:04:35.231Z,2596
2017-07-28T07:05:36.318Z,2540
2017-07-28T07:06:37.046Z,2204
2017-07-28T07:07:37.715Z,2040
2017-07-28T07:08:38.418Z,1832
2017-07-28T07:09:39.095Z,1840
2017-07-28T07:10:40.002Z,1848
2017-07-28T07:11:40.701Z,1656
2017-07-28T07:12:41.703Z,1780
2017-07-28T07:13:42.441Z,1860
2017-07-28T07:14:43.123Z,1884
2017-07-28T07:15:43.928Z,1788
2017-07-28T07:16:44.631Z,1844
2017-07-28T07:17:45.326Z,1724
2017-07-28T07:18:46.396Z,1788
2017-07-28T07:19:47.086Z,1736
2017-07-28T07:20:47.791Z,1800
2017-07-28T07:21:48.542Z,1812
2017-07-28T07:22:49.217Z,1844
2017-07-28T07:23:49.926Z,1868
2017-07-28T07:24:51.064Z,1932
2017-07-28T07:25:51.779Z,2032
2017-07-28T07:26:52.462Z,2192
2017-07-28T07:27:53.221Z,2372
2017-07-28T07:28:54.114Z,2492
2017-07-28T07:29:54.870Z,2860
2017-07-28T07:30:55.814Z,3348
2017-07-28T07:31:56.504Z,3124
2017-07-28T07:32:57.230Z,2872
2017-07-28T07:33:57.936Z,2356
2017-07-28T07:34:58.719Z,2436
2017-07-28T07:35:59.470Z,3300
2017-07-28T07:37:00.496Z,3652
2017-07-28T07:38:01.165Z,2412
2017-07-28T07:39:01.868Z,2168
2017-07-28T07:40:02.856Z,2144
2017-07-28T07:41:03.646Z,1888
2017-07-28T07:42:04.407Z,1928
2017-07-28T07:43:05.342Z,1980
2017-07-28T07:44:06.050Z,1960
2017-07-28T07:45:06.784Z,2048
2017-07-28T07:46:07.489Z,2220
2017-07-28T07:47:08.200Z,2296
2017-07-28T07:48:08.941Z,2228
2017-07-28T07:49:10.023Z,1952
2017-07-28T07:50:10.784Z,2052
2017-07-28T07:51:11.510Z,2112
2017-07-28T07:52:12.249Z,2364
2017-07-28T07:53:13.010Z,2056
2017-07-28T07:54:13.752Z,1900
2017-07-28T07:55:14.441Z,1856
2017-07-28T07:56:15.487Z,1992
2017-07-28T07:57:16.206Z,2028
2017-07-28T07:58:16.995Z,2036
2017-07-28T07:59:17.642Z,2060
2017-07-28T08:00:18.410Z,2184
2017-07-28T08:01:19.393Z,2356
2017-07-28T08:02:20.380Z,2348
2017-07-28T08:03:21.078Z,2220
2017-07-28T08:04:21.846Z,2420
2017-07-28T08:05:22.534Z,2700
2017-07-28T08:06:23.267Z,3272
2017-07-28T08:07:24.053Z,3616
2017-07-28T08:08:24.999Z,4160
2017-07-28T08:09:25.763Z,4856
2017-07-28T08:10:26.499Z,5104
2017-07-28T08:11:27.203Z,5108
2017-07-28T08:12:27.893Z,4972
2017-07-28T08:13:28.574Z,4704
2017-07-28T08:14:29.515Z,3952
2017-07-28T08:15:30.234Z,4024
2017-07-28T08:16:30.961Z,4108
2017-07-28T08:17:31.669Z,4436
2017-07-28T08:18:32.384Z,4944
2017-07-28T08:19:33.094Z,4888
2017-07-28T08:20:34.047Z,4868
2017-07-28T08:21:34.772Z,5076
2017-07-28T08:22:35.461Z,5828
2017-07-28T08:23:36.196Z,6088
2017-07-28T08:24:36.982Z,6212
2017-07-28T08:25:37.683Z,6652
2017-07-28T08:26:38.419Z,6732
2017-07-28T08:27:39.367Z,6704
2017-07-28T08:28:40.068Z,6784
2017-07-28T08:29:40.804Z,6600
2017-07-28T08:30:41.504Z,6684
2017-07-28T08:31:42.202Z,6540
2017-07-28T08:32:42.890Z,6440
2017-07-28T08:33:43.846Z,6324
2017-07-28T08:36:00.314Z,5876
2017-07-28T08:37:01.030Z,5736
2017-07-28T08:38:01.866Z,5736
2017-07-28T08:39:02.586Z,5856
2017-07-28T08:40:03.587Z,5984
2017-07-28T08:41:04.310Z,6100
2017-07-28T08:42:05.016Z,6336
2017-07-28T08:43:05.692Z,6748
2017-07-28T08:44:06.394Z,7352
2017-07-28T08:45:07.096Z,7848
2017-07-28T08:46:08.074Z,7916
2017-07-28T08:47:08.748Z,7704
2017-07-28T08:48:09.499Z,7504
2017-07-28T08:49:10.231Z,7160
2017-07-28T08:50:10.971Z,6724
2017-07-28T08:51:11.701Z,6240
2017-07-28T08:52:12.692Z,5632
2017-07-28T08:53:13.364Z,5172
2017-07-28T08:54:14.095Z,5244
2017-07-28T08:55:14.830Z,4660
2017-07-28T08:56:15.587Z,5232
2017-07-28T08:57:16.256Z,5212
2017-07-28T08:58:17.217Z,5060
2017-07-28T08:59:17.987Z,4384
2017-07-28T09:00:18.654Z,4704
2017-07-28T09:01:19.561Z,4356
2017-07-28T09:02:20.245Z,3892
2017-07-28T09:03:21.007Z,4484
2017-07-28T09:04:21.702Z,4860
2017-07-28T09:05:22.687Z,4488
2017-07-28T09:06:23.537Z,3924
2017-07-28T09:07:24.341Z,3784
2017-07-28T09:08:25.043Z,3992
2017-07-28T09:09:25.738Z,4228
2017-07-28T09:10:26.423Z,4324
2017-07-28T09:11:27.488Z,4716
2017-07-28T09:12:28.199Z,5052
2017-07-28T09:13:28.928Z,5196
2017-07-28T09:14:29.606Z,6164
2017-07-28T09:15:30.305Z,6404
2017-07-28T09:16:30.994Z,5924
2017-07-28T09:17:31.997Z,5512
2017-07-28T09:18:32.712Z,5816
2017-07-28T09:19:33.458Z,6284
2017-07-28T09:20:34.156Z,6068
2017-07-28T09:21:34.846Z,5684
2017-07-28T09:22:35.597Z,5284
2017-07-28T09:23:36.648Z,5360
2017-07-28T09:24:37.387Z,5736
2017-07-28T09:25:38.084Z,6380
2017-07-28T09:26:38.874Z,7116
2017-07-28T09:27:39.559Z,6936
2017-07-28T09:28:40.260Z,6048
2017-07-28T09:29:41.261Z,5660
2017-07-28T09:30:41.941Z,5608
2017-07-28T09:31:42.730Z,6412
2017-07-28T09:32:43.553Z,7156
2017-07-28T09:33:44.248Z,6984
2017-07-28T09:34:45.318Z,6284
2017-07-28T09:35:46.623Z,6040
2017-07-28T09:36:47.393Z,4876
2017-07-28T09:37:48.153Z,3748
2017-07-28T09:38:48.961Z,3352
2017-07-28T09:39:49.739Z,4020
2017-07-28T09:40:50.452Z,4668
2017-07-28T09:41:51.434Z,5260
2017-07-28T09:42:52.143Z,5776
2017-07-28T09:43:52.950Z,6024
2017-07-28T09:44:53.633Z,6292
2017-07-28T09:45:54.383Z,6632
2017-07-28T09:46:55.063Z,7000
2017-07-28T09:47:55.764Z,6580
2017-07-28T09:48:56.908Z,6844
2017-07-28T09:49:57.654Z,6820
2017-07-28T09:50:58.354Z,6868
2017-07-28T09:51:59.055Z,6604
2017-07-28T09:52:59.745Z,6360
2017-07-28T09:54:00.595Z,6628
2017-07-28T09:55:01.624Z,7016
2017-07-28T09:56:02.302Z,7932
2017-07-28T09:57:02.999Z,8284
2017-07-28T09:58:03.696Z,7224
2017-07-28T09:59:04.439Z,6912
2017-07-28T10:00:05.125Z,6360
2017-07-28T10:01:06.173Z,6984
2017-07-28T10:02:06.900Z,6776
2017-07-28T10:03:07.632Z,6216
2017-07-28T10:04:08.486Z,6408
2017-07-28T10:05:09.189Z,6940
2017-07-28T10:06:09.935Z,8040
2017-07-28T10:07:10.969Z,9568
2017-07-28T10:08:11.742Z,9192
2017-07-28T10:09:12.453Z,8048
2017-07-28T10:10:13.136Z,7544
2017-07-28T10:11:13.847Z,7692
2017-07-28T10:12:14.536Z,7576
2017-07-28T10:13:15.477Z,6192
2017-07-28T10:14:16.234Z,5324
2017-07-28T10:15:16.937Z,5368
2017-07-28T10:16:17.643Z,6364
2017-07-28T10:17:18.350Z,8320
2017-07-28T10:18:19.086Z,9240
2017-07-28T10:19:20.088Z,10280
2017-07-28T10:20:20.768Z,8920
2017-07-28T10:21:21.465Z,7520
2017-07-28T10:22:22.157Z,6700
2017-07-28T10:23:22.857Z,6492
2017-07-28T10:24:23.603Z,7292
2017-07-28T10:25:24.610Z,8240
2017-07-28T10:26:25.304Z,8972
2017-07-28T10:27:26.016Z,10172
2017-07-28T10:28:26.712Z,10388
2017-07-28T10:29:27.465Z,8420
2017-07-28T10:30:28.166Z,7572
2017-07-28T10:31:29.097Z,7824
2017-07-28T10:32:29.789Z,7528
2017-07-28T10:33:30.491Z,7076
2017-07-28T10:34:31.196Z,7412
2017-07-28T10:35:31.909Z,8568
2017-07-28T10:36:32.930Z,9124
2017-07-28T10:37:33.895Z,8900
2017-07-28T10:38:34.660Z,8392
2017-07-28T10:39:35.341Z,7728
2017-07-28T10:40:36.028Z,7028
2017-07-28T10:41:36.735Z,6096
2017-07-28T10:42:37.507Z,6320
2017-07-28T10:43:38.573Z,6960
2017-07-28T10:44:39.333Z,7748
2017-07-28T10:45:40.084Z,7920
2017-07-28T10:46:40.794Z,7348
2017-07-28T10:47:41.465Z,6992
2017-07-28T10:48:42.415Z,6620
2017-07-28T10:49:43.466Z,5808
2017-07-28T10:50:44.164Z,4976
2017-07-28T10:51:44.846Z,4972
2017-07-28T10:52:45.562Z,5668
2017-07-28T10:53:46.345Z,6488
2017-07-28T10:54:47.068Z,8128
2017-07-28T10:55:48.079Z,9068
2017-07-28T10:56:48.779Z,8028
2017-07-28T10:57:49.543Z,7128
2017-07-28T10:58:50.288Z,6956
2017-07-28T10:59:51.011Z,7044
2017-07-28T11:00:51.680Z,6908
2017-07-28T11:01:52.641Z,6676
2017-07-28T11:02:53.369Z,9228
2017-07-28T11:03:54.295Z,9816
2017-07-28T11:04:54.957Z,9060
2017-07-28T11:05:55.669Z,8788
2017-07-28T11:06:56.368Z,10016
2017-07-28T11:07:57.364Z,10564
2017-07-28T11:08:58.052Z,10048
2017-07-28T11:09:58.744Z,9896
2017-07-28T11:10:59.447Z,9828
2017-07-28T11:12:00.135Z,9464
2017-07-28T11:13:00.914Z,9500
2017-07-28T11:14:01.897Z,9336
2017-07-28T11:15:02.587Z,9416
2017-07-28T11:16:03.431Z,9820
2017-07-28T11:17:04.101Z,10324
2017-07-28T11:18:04.807Z,10404
2017-07-28T11:19:05.556Z,9592
2017-07-28T11:20:06.510Z,8968
2017-07-28T11:21:07.260Z,9256
2017-07-28T11:22:07.963Z,10108
2017-07-28T11:23:08.650Z,10868
2017-07-28T11:24:09.458Z,10476
2017-07-28T11:25:10.274Z,9276
2017-07-28T11:26:11.188Z,7980
2017-07-28T11:27:11.949Z,7772
2017-07-28T11:28:12.670Z,8996
2017-07-28T11:29:13.462Z,10900
2017-07-28T11:30:14.156Z,11932
2017-07-28T11:31:14.961Z,12192
2017-07-28T11:32:15.928Z,11184
2017-07-28T11:33:16.639Z,9608
2017-07-28T11:34:17.407Z,9112
2017-07-28T11:35:18.077Z,8972
2017-07-28T11:36:18.771Z,8756
2017-07-28T11:37:19.479Z,9316
2017-07-28T11:38:20.475Z,9524
2017-07-28T11:39:21.278Z,9596
2017-07-28T11:40:21.978Z,9624
2017-07-28T11:41:22.661Z,10264
2017-07-28T11:42:23.433Z,10012
2017-07-28T11:43:24.163Z,9624
2017-07-28T11:44:25.154Z,9748
2017-07-28T11:45:25.875Z,9512
2017-07-28T11:46:26.621Z,8904
2017-07-28T11:47:27.400Z,8224
2017-07-28T11:48:28.174Z,7268
2017-07-28T11:49:28.847Z,5976
2017-07-28T11:50:29.815Z,6080
2017-07-28T11:51:30.549Z,6564
2017-07-28T11:52:31.271Z,7444
2017-07-28T11:53:31.995Z,7860
2017-07-28T11:54:32.703Z,7808
2017-07-28T11:55:33.390Z,8248
2017-07-28T11:56:34.356Z,8312
2017-07-28T11:57:35.020Z,9056
2017-07-28T11:58:35.726Z,10028
2017-07-28T11:59:36.454Z,10340
2017-07-28T12:00:37.164Z,10392
2017-07-28T12:01:37.878Z,9552
2017-07-28T12:02:38.549Z,8980
2017-07-28T12:03:39.662Z,8924
2017-07-28T12:04:40.357Z,8512
2017-07-28T12:05:41.048Z,10124
2017-07-28T12:06:41.771Z,11260
2017-07-28T12:07:42.458Z,10520
2017-07-28T12:08:43.255Z,10816
2017-07-28T12:09:44.254Z,10732
2017-07-28T12:10:44.954Z,10912
2017-07-28T12:11:45.656Z,11904
2017-07-28T12:12:46.361Z,11588
2017-07-28T12:13:47.188Z,10860
2017-07-28T12:14:47.846Z,10396
2017-07-28T12:15:48.860Z,9728
2017-07-28T12:16:49.613Z,9164
2017-07-28T12:17:50.312Z,7956
2017-07-28T12:18:51.012Z,7212
2017-07-28T12:19:51.719Z,7764
2017-07-28T12:20:52.449Z,7788
2017-07-28T12:21:53.515Z,9172
2017-07-28T12:22:54.206Z,10708
2017-07-28T12:23:54.912Z,10492
2017-07-28T12:24:55.662Z,10728
2017-07-28T12:25:56.391Z,11148
2017-07-28T12:26:57.077Z,11144
2017-07-28T12:27:58.073Z,10704
2017-07-28T12:28:58.786Z,10828
2017-07-28T12:29:59.495Z,11056
2017-07-28T12:31:00.185Z,10268
2017-07-28T12:32:00.881Z,8488
2017-07-28T12:33:01.580Z,9636
2017-07-28T12:34:02.282Z,8328
2017-07-28T12:35:03.360Z,7380
2017-07-28T12:36:04.110Z,6900
2017-07-28T12:37:04.795Z,5764
2017-07-28T12:38:05.502Z,4624
2017-07-28T12:39:06.201Z,4140
2017-07-28T12:40:06.948Z,4412
2017-07-28T12:41:07.901Z,5256
2017-07-28T12:42:08.679Z,6504
2017-07-28T12:43:09.371Z,6636
2017-07-28T12:44:10.079Z,7132
2017-07-28T12:45:10.778Z,6744
2017-07-28T12:46:11.526Z,6148
2017-07-28T12:47:12.538Z,6552
2017-07-28T12:48:13.244Z,7356
2017-07-28T12:49:13.952Z,7000
2017-07-28T12:50:14.837Z,6560
2017-07-28T12:51:15.533Z,6340
2017-07-28T12:52:16.237Z,6148
2017-07-28T12:53:17.167Z,6024
2017-07-28T12:54:17.923Z,6288
2017-07-28T12:55:18.609Z,6796
2017-07-28T12:56:19.320Z,6820
2017-07-28T12:57:19.993Z,6968
2017-07-28T12:58:20.701Z,7664
2017-07-28T12:59:21.653Z,9236
2017-07-28T13:00:22.416Z,9864
2017-07-28T13:01:23.127Z,10448
2017-07-28T13:02:23.805Z,12948
2017-07-28T13:03:24.513Z,13348
2017-07-28T13:04:25.295Z,11776
2017-07-28T13:05:26.483Z,10520
2017-07-28T13:06:27.177Z,9612
2017-07-28T13:07:27.917Z,10552
2017-07-28T13:08:28.633Z,10872
2017-07-28T13:09:29.401Z,9604
2017-07-28T13:10:30.351Z,9056
2017-07-28T13:11:31.314Z,8992
2017-07-28T13:12:31.998Z,9516
2017-07-28T13:13:32.700Z,9952
2017-07-28T13:14:33.392Z,8924
2017-07-28T13:15:34.309Z,9440
2017-07-28T13:16:35.058Z,10600
2017-07-28T13:17:36.051Z,11596
2017-07-28T13:18:36.773Z,10684
2017-07-28T13:19:37.477Z,9364
2017-07-28T13:20:38.171Z,7512
2017-07-28T13:21:38.863Z,6896
2017-07-28T13:22:39.767Z,7000
2017-07-28T13:23:40.763Z,7068
2017-07-28T13:24:41.457Z,6936
2017-07-28T13:25:42.165Z,6516
2017-07-28T13:26:43.194Z,6540
2017-07-28T13:27:43.926Z,7504
2017-07-28T13:28:44.670Z,8232
2017-07-28T13:29:45.677Z,10016
2017-07-28T13:30:46.344Z,12144
2017-07-28T13:31:47.061Z,14480
2017-07-28T13:32:47.800Z,17512
2017-07-28T13:33:48.507Z,24768
2017-07-28T13:34:49.212Z,15984
2017-07-28T13:35:50.240Z,13776
2017-07-28T13:36:50.932Z,13976
2017-07-28T13:37:51.675Z,12000
2017-07-28T13:38:52.376Z,12624
2017-07-28T13:39:53.089Z,14888
2017-07-28T13:40:53.777Z,8840
2017-07-28T13:41:54.811Z,8852
2017-07-28T13:42:55.581Z,10400
2017-07-28T13:43:56.295Z,12408
2017-07-28T13:44:56.997Z,16684
2017-07-28T13:45:57.758Z,23136
2017-07-28T13:46:58.496Z,23936
2017-07-28T13:47:59.310Z,18916
2017-07-28T13:49:00.439Z,15128
2017-07-28T13:50:01.153Z,10048
2017-07-28T13:51:01.838Z,8012
2017-07-28T13:52:02.578Z,6444